createdAt,value
2019-02-27T00:01:19.532Z,10.44
2019-02-27T00:02:23.973Z,10.43
2019-02-27T00:03:29.123Z,10.46
2019-02-27T00:06:41.575Z,10.43
2019-02-27T00:08:49.677Z,10.38
2019-02-27T00:14:09.681Z,10.35
2019-02-27T00:17:23.143Z,10.27
2019-02-27T00:18:27.527Z,10.19
2019-02-27T00:19:32.033Z,10.23
2019-02-27T00:20:37.037Z,10.25
2019-02-27T00:22:47.853Z,10.19
2019-02-27T00:23:56.657Z,10.17
2019-02-27T00:29:13.258Z,10.14
2019-02-27T00:30:17.650Z,10.15
2019-02-27T00:31:22.402Z,10.06
2019-02-27T00:32:27.477Z,10.08
2019-02-27T00:34:35.443Z,10.10
2019-02-27T00:35:39.917Z,10.07
2019-02-27T00:36:45.171Z,10.08
2019-02-27T00:37:52.040Z,10.08
2019-02-27T00:38:57.931Z,10.10
2019-02-27T00:42:11.085Z,10.07
2019-02-27T00:43:15.492Z,10.04
2019-02-27T00:45:23.658Z,10.03
2019-02-27T00:46:28.109Z,10.02
2019-02-27T00:47:32.521Z,9.99
2019-02-27T00:48:36.919Z,9.96
2019-02-27T00:49:41.334Z,9.90
2019-02-27T00:51:49.336Z,9.93
2019-02-27T00:55:04.240Z,9.93
2019-02-27T00:59:18.752Z,9.80
2019-02-27T01:00:23.125Z,9.81
2019-02-27T01:01:27.511Z,9.81
2019-02-27T01:02:31.933Z,9.84
2019-02-27T01:04:39.928Z,9.78
2019-02-27T01:06:48.182Z,9.79
2019-02-27T01:08:57.369Z,9.77
2019-02-27T01:11:06.864Z,9.77
2019-02-27T01:12:11.582Z,9.76
2019-02-27T01:15:23.303Z,9.75
2019-02-27T01:17:31.277Z,9.71
2019-02-27T01:18:35.683Z,9.71
2019-02-27T01:19:40.063Z,9.69
2019-02-27T01:21:48.090Z,9.68
2019-02-27T01:22:52.610Z,9.62
2019-02-27T01:23:57.008Z,9.60
2019-02-27T01:26:05.007Z,9.59
2019-02-27T01:27:09.383Z,9.59
2019-02-27T01:29:18.089Z,9.58
2019-02-27T01:30:24.442Z,9.54
2019-02-27T01:32:33.161Z,9.53
2019-02-27T01:33:38.123Z,9.54
2019-02-27T01:35:51.256Z,9.48
2019-02-27T01:36:57.595Z,9.49
2019-02-27T01:39:05.295Z,9.49
2019-02-27T01:41:17.709Z,9.44
2019-02-27T01:43:25.709Z,9.44
2019-02-27T01:47:40.995Z,9.46
2019-02-27T01:48:45.407Z,9.43
2019-02-27T01:53:00.864Z,9.40
2019-02-27T01:55:08.913Z,9.39
2019-02-27T01:56:13.391Z,9.38
2019-02-27T01:57:17.895Z,9.37
2019-02-27T02:01:33.093Z,9.33
2019-02-27T02:02:39.745Z,9.33
2019-02-27T02:04:47.510Z,9.29
2019-02-27T02:05:52.992Z,9.28
2019-02-27T02:10:40.729Z,9.25
2019-02-27T02:12:52.922Z,9.23
2019-02-27T02:14:05.004Z,9.24
2019-02-27T02:24:45.895Z,9.08
2019-02-27T02:39:54.646Z,8.95
2019-02-27T02:41:12.338Z,8.96
2019-02-27T02:42:24.703Z,8.96
2019-02-27T02:43:55.543Z,8.93
2019-02-27T02:45:08.584Z,8.90
2019-02-27T02:47:30.359Z,8.89
2019-02-27T02:48:39.599Z,8.88
2019-02-27T02:52:40.490Z,8.85
2019-02-27T02:54:00.361Z,8.82
2019-02-27T02:55:12.744Z,8.83
2019-02-27T02:56:24.858Z,8.81
2019-02-27T03:01:15.408Z,8.75
2019-02-27T03:02:29.816Z,8.71
2019-02-27T03:04:53.932Z,8.72
2019-02-27T03:08:54.981Z,8.67
2019-02-27T03:11:19.086Z,8.71
2019-02-27T03:16:27.571Z,8.61
2019-02-27T03:21:43.174Z,8.59
2019-02-27T03:34:35.924Z,8.47
2019-02-27T03:35:51.806Z,8.47
2019-02-27T03:38:24.247Z,8.45
2019-02-27T03:39:35.886Z,8.43
2019-02-27T03:43:37.552Z,8.39
2019-02-27T03:44:57.075Z,8.40
2019-02-27T03:46:08.844Z,8.41
2019-02-27T03:47:32.209Z,8.39
2019-02-27T03:51:14.893Z,8.36
2019-02-27T03:57:37.252Z,8.31
2019-02-27T03:58:50.273Z,8.27
2019-02-27T04:00:03.352Z,8.27
2019-02-27T04:10:52.080Z,8.21
2019-02-27T04:11:56.711Z,8.20
2019-02-27T04:15:18.140Z,8.20
2019-02-27T04:16:28.807Z,8.21
2019-02-27T04:17:29.144Z,8.19
2019-02-27T04:18:32.632Z,8.17
2019-02-27T04:19:39.399Z,8.16
2019-02-27T04:21:48.938Z,8.07
2019-02-27T04:23:57.144Z,8.09
2019-02-27T04:28:12.539Z,8.08
2019-02-27T04:30:20.497Z,8.06
2019-02-27T04:32:29.432Z,8.01
2019-02-27T04:37:48.208Z,8.02
2019-02-27T04:38:52.721Z,8.02
2019-02-27T04:47:22.355Z,7.98
2019-02-27T04:48:27.015Z,7.98
2019-02-27T04:50:36.732Z,7.95
2019-02-27T04:51:41.132Z,7.94
2019-02-27T04:53:49.127Z,7.89
2019-02-27T04:54:53.535Z,7.87
2019-02-27T04:55:58.977Z,7.87
2019-02-27T05:02:22.660Z,7.86
2019-02-27T05:03:28.487Z,7.87
2019-02-27T05:05:41.349Z,7.83
2019-02-27T05:06:47.256Z,7.81
2019-02-27T05:08:59.750Z,7.80
2019-02-27T05:10:07.279Z,7.80
2019-02-27T05:12:15.507Z,7.79
2019-02-27T05:17:34.555Z,7.75
2019-02-27T05:18:38.940Z,7.75
2019-02-27T05:19:43.347Z,7.75
2019-02-27T05:22:54.943Z,7.69
2019-02-27T05:23:59.352Z,7.70
2019-02-27T05:25:04.883Z,7.67
2019-02-27T05:26:09.297Z,7.67
2019-02-27T05:27:13.705Z,7.66
2019-02-27T05:28:18.432Z,7.66
2019-02-27T05:29:22.831Z,7.64
2019-02-27T05:31:30.837Z,7.67
2019-02-27T05:32:35.353Z,7.65
2019-02-27T05:34:43.355Z,7.64
2019-02-27T05:35:47.754Z,7.62
2019-02-27T05:37:55.722Z,7.60
2019-02-27T05:46:30.458Z,7.59
2019-02-27T05:49:42.011Z,7.56
2019-02-27T05:50:46.424Z,7.56
2019-02-27T05:51:51.687Z,7.54
2019-02-27T05:52:56.163Z,7.53
2019-02-27T05:56:09.288Z,7.48
2019-02-27T05:57:13.677Z,7.48
2019-02-27T05:58:18.111Z,7.47
2019-02-27T06:00:26.397Z,7.44
2019-02-27T06:05:49.577Z,7.37
2019-02-27T06:07:55.953Z,7.36
2019-02-27T06:09:00.339Z,7.38
2019-02-27T06:12:16.043Z,7.35
2019-02-27T06:13:20.411Z,7.34
2019-02-27T06:20:46.501Z,7.31
2019-02-27T06:26:05.391Z,7.25
2019-02-27T06:31:24.694Z,7.28
2019-02-27T06:32:29.168Z,7.29
2019-02-27T06:36:44.381Z,7.26
2019-02-27T06:38:52.655Z,7.25
2019-02-27T06:39:57.026Z,7.25
2019-02-27T06:41:01.448Z,7.26
2019-02-27T06:43:09.680Z,7.24
2019-02-27T06:44:14.095Z,7.24
2019-02-27T06:47:25.790Z,7.29
2019-02-27T06:48:30.192Z,7.30
2019-02-27T06:49:35.522Z,7.31
2019-02-27T06:54:55.014Z,7.32
2019-02-27T06:56:02.753Z,7.33
2019-02-27T06:57:07.794Z,7.31
2019-02-27T06:58:14.924Z,7.32
2019-02-27T07:01:28.817Z,7.35
2019-02-27T07:10:00.441Z,7.44
2019-02-27T07:11:10.552Z,7.42
2019-02-27T07:12:11.296Z,7.42
2019-02-27T07:15:23.126Z,7.42
2019-02-27T07:16:27.821Z,7.44
2019-02-27T07:17:32.477Z,7.43
2019-02-27T07:18:41.506Z,7.46
2019-02-27T07:19:43.495Z,7.47
2019-02-27T07:21:51.553Z,7.48
2019-02-27T07:25:07.258Z,7.51
2019-02-27T07:26:13.241Z,7.52
2019-02-27T07:27:18.362Z,7.53
2019-02-27T07:30:29.944Z,7.54
2019-02-27T07:34:46.741Z,7.58
2019-02-27T07:35:52.411Z,7.57
2019-02-27T07:38:00.384Z,7.58
2019-02-27T07:39:05.488Z,7.59
2019-02-27T07:43:22.978Z,7.57
2019-02-27T07:44:27.359Z,7.60
2019-02-27T07:46:35.699Z,7.64
2019-02-27T07:47:40.341Z,7.63
2019-02-27T07:48:44.736Z,7.67
2019-02-27T07:51:57.805Z,7.72
2019-02-27T07:53:02.685Z,7.73
2019-02-27T07:55:21.487Z,7.74
2019-02-27T07:56:19.471Z,7.77
2019-02-27T07:59:31.049Z,7.83
2019-02-27T08:00:35.982Z,7.83
2019-02-27T08:03:48.281Z,7.83
2019-02-27T08:06:59.877Z,7.89
2019-02-27T08:08:04.288Z,7.87
2019-02-27T08:09:08.689Z,7.88
2019-02-27T08:10:17.933Z,7.88
2019-02-27T08:13:36.581Z,7.85
2019-02-27T08:16:49.719Z,7.87
2019-02-27T08:18:57.963Z,7.88
2019-02-27T08:20:02.646Z,7.91
2019-02-27T08:21:07.124Z,7.98
2019-02-27T08:23:20.153Z,8.15
2019-02-27T08:24:24.992Z,8.24
2019-02-27T08:25:30.584Z,8.29
2019-02-27T08:26:36.420Z,8.37
2019-02-27T08:30:52.227Z,8.59
2019-02-27T08:33:00.173Z,8.90
2019-02-27T08:35:08.447Z,9.02
2019-02-27T08:36:12.867Z,9.09
2019-02-27T08:37:17.265Z,9.15
2019-02-27T08:38:23.510Z,9.26
2019-02-27T08:39:28.137Z,9.36
2019-02-27T08:40:32.548Z,9.51
2019-02-27T08:42:40.709Z,9.85
2019-02-27T08:45:53.291Z,10.29
2019-02-27T08:48:01.266Z,10.66
2019-02-27T08:50:13.828Z,10.95
2019-02-27T08:52:22.218Z,11.32
2019-02-27T08:56:37.393Z,11.66
2019-02-27T08:59:49.532Z,11.87
2019-02-27T09:03:02.962Z,12.17
2019-02-27T09:04:11.290Z,12.30
2019-02-27T09:06:19.179Z,12.56
2019-02-27T09:08:31.366Z,12.95
2019-02-27T09:11:41.554Z,13.62
2019-02-27T09:12:48.833Z,13.87
2019-02-27T09:13:54.223Z,14.13
2019-02-27T09:18:10.567Z,15.44
2019-02-27T09:19:14.953Z,15.89
2019-02-27T09:23:31.078Z,18.03
2019-02-27T09:24:35.435Z,18.46
2019-02-27T09:25:39.850Z,18.90
2019-02-27T09:26:45.157Z,19.25
2019-02-27T09:27:49.549Z,19.64
2019-02-27T09:36:19.368Z,21.38
2019-02-27T09:37:23.719Z,21.60
2019-02-27T09:42:42.670Z,22.48
2019-02-27T09:43:47.173Z,22.73
2019-02-27T09:44:51.583Z,22.89
2019-02-27T09:49:08.179Z,23.23
2019-02-27T09:51:34.963Z,23.74
2019-02-27T09:57:58.429Z,24.10
2019-02-27T09:59:02.841Z,24.05
2019-02-27T10:00:18.307Z,24.05
2019-02-27T10:01:22.735Z,24.08
2019-02-27T10:03:32.817Z,23.96
2019-02-27T10:05:41.014Z,24.17
2019-02-27T10:06:45.709Z,24.47
2019-02-27T10:07:51.360Z,24.44
2019-02-27T10:08:58.998Z,24.57
2019-02-27T10:11:08.179Z,24.64
2019-02-27T10:12:12.592Z,24.79
2019-02-27T10:13:16.992Z,24.84
2019-02-27T10:15:26.003Z,24.85
2019-02-27T10:16:34.644Z,24.96
2019-02-27T10:19:45.164Z,24.68
2019-02-27T10:21:53.461Z,24.69
2019-02-27T10:27:13.305Z,24.29
2019-02-27T10:30:26.177Z,23.75
2019-02-27T10:35:45.057Z,24.12
2019-02-27T10:40:01.088Z,24.64
2019-02-27T10:41:06.610Z,24.84
2019-02-27T10:44:18.192Z,24.74
2019-02-27T10:45:22.594Z,24.92
2019-02-27T10:48:34.187Z,25.08
2019-02-27T10:52:50.123Z,23.95
2019-02-27T10:54:58.593Z,23.19
2019-02-27T10:56:03.004Z,23.08
2019-02-27T10:57:07.391Z,23.06
2019-02-27T10:58:13.308Z,23.12
2019-02-27T10:59:19.689Z,23.19
2019-02-27T11:02:34.915Z,23.22
2019-02-27T11:03:39.315Z,23.19
2019-02-27T11:06:50.957Z,23.18
2019-02-27T11:14:19.167Z,23.20
2019-02-27T11:20:42.165Z,23.25
2019-02-27T11:21:47.648Z,23.29
2019-02-27T11:22:52.064Z,23.33
2019-02-27T11:30:23.379Z,23.58
2019-02-27T11:33:35.175Z,23.66
2019-02-27T11:35:43.280Z,23.73
2019-02-27T11:36:47.683Z,23.77
2019-02-27T11:38:58.839Z,23.84
2019-02-27T11:40:05.394Z,23.90
2019-02-27T11:43:17.628Z,23.94
2019-02-27T11:46:29.318Z,24.12
2019-02-27T11:47:33.695Z,24.15
2019-02-27T11:49:41.837Z,24.28
2019-02-27T11:52:53.457Z,24.37
2019-02-27T11:53:57.850Z,24.42
2019-02-27T11:57:10.912Z,24.36
2019-02-27T11:59:19.480Z,24.42
2019-02-27T12:02:37.033Z,24.53
2019-02-27T12:03:38.373Z,24.61
2019-02-27T12:04:42.843Z,24.69
2019-02-27T12:05:47.482Z,24.75
2019-02-27T12:08:59.726Z,24.93
2019-02-27T12:13:19.351Z,25.08
2019-02-27T12:18:38.213Z,25.26
2019-02-27T12:26:04.396Z,25.44
2019-02-27T12:29:16.484Z,25.56
2019-02-27T12:30:25.525Z,25.61
2019-02-27T12:33:37.195Z,25.70
2019-02-27T12:35:45.302Z,25.75
2019-02-27T12:37:53.404Z,25.79
2019-02-27T12:38:58.950Z,25.83
2019-02-27T12:40:06.315Z,25.90
2019-02-27T12:45:29.718Z,26.02
2019-02-27T12:46:34.800Z,26.05
2019-02-27T12:47:40.804Z,26.08
2019-02-27T12:48:46.442Z,26.17
2019-02-27T12:51:58.916Z,26.23
2019-02-27T12:56:15.736Z,26.28
2019-02-27T12:57:20.460Z,26.31
2019-02-27T12:58:25.283Z,26.32
2019-02-27T12:59:30.696Z,26.35
2019-02-27T13:01:40.040Z,26.42
2019-02-27T13:02:44.757Z,26.41
2019-02-27T13:04:53.249Z,26.46
2019-02-27T13:05:58.213Z,26.48
2019-02-27T13:11:22.118Z,26.60
2019-02-27T13:16:41.067Z,26.71
2019-02-27T13:17:45.573Z,26.70
2019-02-27T13:19:53.669Z,26.75
2019-02-27T13:20:58.060Z,26.77
2019-02-27T13:22:02.489Z,26.78
2019-02-27T13:24:14.993Z,26.77
2019-02-27T13:26:20.534Z,26.81
2019-02-27T13:27:25.244Z,26.83
2019-02-27T13:35:56.733Z,26.89
2019-02-27T13:39:08.845Z,26.85
2019-02-27T13:40:20.070Z,26.86
2019-02-27T13:41:24.645Z,26.83
2019-02-27T13:45:39.913Z,26.91
2019-02-27T13:47:47.921Z,26.79
2019-02-27T13:49:56.927Z,26.87
2019-02-27T13:52:04.927Z,26.82
2019-02-27T13:53:09.445Z,26.78
2019-02-27T13:55:19.553Z,26.76
2019-02-27T13:56:25.106Z,26.75
2019-02-27T13:58:36.457Z,26.69
2019-02-27T14:00:45.911Z,26.63
2019-02-27T14:02:53.931Z,26.60
2019-02-27T14:03:58.311Z,26.55
2019-02-27T14:05:05.819Z,26.53
2019-02-27T14:06:10.280Z,26.52
2019-02-27T14:10:30.707Z,26.43
2019-02-27T14:14:45.989Z,26.33
2019-02-27T14:15:50.432Z,26.33
2019-02-27T14:16:55.053Z,26.30
2019-02-27T14:20:14.744Z,26.22
2019-02-27T14:22:22.832Z,26.14
2019-02-27T14:23:27.316Z,26.11
2019-02-27T14:25:35.583Z,26.08
2019-02-27T14:28:47.180Z,25.96
2019-02-27T14:29:51.637Z,25.92
2019-02-27T14:30:56.059Z,25.92
2019-02-27T14:33:04.096Z,25.85
2019-02-27T14:39:26.968Z,25.59
2019-02-27T14:40:37.617Z,25.56
2019-02-27T14:41:39.528Z,25.53
2019-02-27T14:42:43.956Z,25.49
2019-02-27T14:43:48.679Z,25.43
2019-02-27T14:44:53.075Z,25.37
2019-02-27T14:45:57.575Z,25.33
2019-02-27T14:48:05.563Z,25.26
2019-02-27T14:51:19.590Z,25.14
2019-02-27T14:52:25.000Z,25.13
2019-02-27T14:54:33.001Z,25.09
2019-02-27T14:57:49.962Z,24.94
2019-02-27T14:58:51.788Z,24.92
2019-02-27T14:59:56.173Z,24.87
2019-02-27T15:05:15.112Z,24.66
2019-02-27T15:07:23.181Z,24.59
2019-02-27T15:08:28.679Z,24.58
2019-02-27T15:10:40.222Z,24.49
2019-02-27T15:12:46.764Z,24.36
2019-02-27T15:13:51.230Z,24.31
2019-02-27T15:14:57.051Z,24.30
2019-02-27T15:16:01.508Z,24.22
2019-02-27T15:17:05.983Z,24.20
2019-02-27T15:18:10.403Z,24.17
2019-02-27T15:19:14.909Z,24.11
2019-02-27T15:20:21.573Z,24.08
2019-02-27T15:22:29.635Z,24.03
2019-02-27T15:26:45.413Z,23.80
2019-02-27T15:28:54.849Z,23.65
2019-02-27T15:29:59.220Z,23.56
2019-02-27T15:33:10.876Z,23.41
2019-02-27T15:34:15.417Z,23.31
2019-02-27T15:35:22.059Z,23.25
2019-02-27T15:37:29.866Z,23.13
2019-02-27T15:39:37.900Z,22.98
2019-02-27T15:41:46.932Z,22.82
2019-02-27T15:44:00.221Z,22.64
2019-02-27T15:46:05.101Z,22.53
2019-02-27T15:49:21.787Z,22.32
2019-02-27T15:51:33.174Z,22.25
2019-02-27T15:53:41.559Z,22.12
2019-02-27T15:55:50.472Z,22.06
2019-02-27T15:57:58.566Z,22.03
2019-02-27T15:59:06.255Z,21.98
2019-02-27T16:00:17.743Z,21.92
2019-02-27T16:02:23.681Z,21.81
2019-02-27T16:03:28.085Z,21.75
2019-02-27T16:04:32.499Z,21.72
2019-02-27T16:05:37.214Z,21.60
2019-02-27T16:06:41.640Z,21.57
2019-02-27T16:08:49.655Z,21.45
2019-02-27T16:10:57.725Z,21.36
2019-02-27T16:12:02.228Z,21.28
2019-02-27T16:13:06.671Z,21.21
2019-02-27T16:16:23.288Z,21.07
2019-02-27T16:17:30.968Z,21.05
2019-02-27T16:20:42.700Z,20.93
2019-02-27T16:23:54.527Z,20.84
2019-02-27T16:24:58.925Z,20.83
2019-02-27T16:32:30.827Z,20.48
2019-02-27T16:33:35.242Z,20.43
2019-02-27T16:35:43.303Z,20.32
2019-02-27T16:37:56.554Z,20.17
2019-02-27T16:38:59.033Z,20.07
2019-02-27T16:40:10.353Z,20.00
2019-02-27T16:41:16.368Z,19.97
2019-02-27T16:45:37.540Z,19.76
2019-02-27T16:46:44.564Z,19.68
2019-02-27T16:47:48.930Z,19.64
2019-02-27T16:49:56.886Z,19.54
2019-02-27T16:51:01.277Z,19.52
2019-02-27T16:58:32.977Z,19.09
2019-02-27T17:00:39.794Z,19.02
2019-02-27T17:02:48.835Z,18.95
2019-02-27T17:08:07.705Z,18.75
2019-02-27T17:09:13.292Z,18.68
2019-02-27T17:10:23.115Z,18.61
2019-02-27T17:13:35.503Z,18.48
2019-02-27T17:17:53.374Z,18.21
2019-02-27T17:21:07.892Z,18.10
2019-02-27T17:24:21.870Z,17.96
2019-02-27T17:33:54.986Z,17.59
2019-02-27T17:37:07.223Z,17.41
2019-02-27T17:38:13.850Z,17.37
2019-02-27T17:40:21.992Z,17.32
2019-02-27T17:45:40.818Z,17.08
2019-02-27T17:46:45.213Z,17.08
2019-02-27T17:57:26.354Z,16.78
2019-02-27T17:59:34.335Z,16.69
2019-02-27T18:05:59.403Z,16.52
2019-02-27T18:08:07.485Z,16.44
2019-02-27T18:09:11.883Z,16.40
2019-02-27T18:12:26.673Z,16.33
2019-02-27T18:13:35.164Z,16.28
2019-02-27T18:14:37.635Z,16.26
2019-02-27T18:16:45.924Z,16.19
2019-02-27T18:17:50.385Z,16.17
2019-02-27T18:19:58.643Z,16.07
2019-02-27T18:21:03.277Z,16.05
2019-02-27T18:24:16.557Z,16.03
2019-02-27T18:26:27.643Z,15.95
2019-02-27T18:27:32.073Z,15.90
2019-02-27T18:29:41.282Z,15.88
2019-02-27T18:31:50.195Z,15.77
2019-02-27T18:32:54.607Z,15.73
2019-02-27T18:35:02.637Z,15.74
2019-02-27T18:38:15.562Z,15.66
2019-02-27T18:40:23.715Z,15.57
2019-02-27T18:41:29.193Z,15.53
2019-02-27T18:43:37.188Z,15.55
2019-02-27T18:46:48.780Z,15.46
2019-02-27T18:48:56.877Z,15.43
2019-02-27T18:51:04.986Z,15.35
2019-02-27T18:55:20.575Z,15.32
2019-02-27T18:56:26.155Z,15.30
2019-02-27T18:58:35.758Z,15.25
2019-02-27T18:59:40.371Z,15.19
2019-02-27T19:01:48.475Z,15.18
2019-02-27T19:02:55.107Z,15.16
2019-02-27T19:04:01.207Z,15.15
2019-02-27T19:05:07.637Z,15.10
2019-02-27T19:06:12.966Z,15.07
2019-02-27T19:07:20.214Z,15.07
2019-02-27T19:10:31.493Z,15.05
2019-02-27T19:12:39.520Z,15.02
2019-02-27T19:16:55.854Z,14.91
2019-02-27T19:18:03.609Z,14.90
2019-02-27T19:20:15.106Z,14.86
2019-02-27T19:22:23.203Z,14.78
2019-02-27T19:23:27.611Z,14.79
2019-02-27T19:24:32.555Z,14.79
2019-02-27T19:25:37.370Z,14.70
2019-02-27T19:26:44.344Z,14.70
2019-02-27T19:27:50.537Z,14.69
2019-02-27T19:29:58.989Z,14.63
2019-02-27T19:31:03.481Z,14.62
2019-02-27T19:32:07.841Z,14.62
2019-02-27T19:33:12.445Z,14.62
2019-02-27T19:34:16.846Z,14.55
2019-02-27T19:36:24.866Z,14.55
2019-02-27T19:37:29.285Z,14.54
2019-02-27T19:38:33.764Z,14.53
2019-02-27T19:39:38.165Z,14.51
2019-02-27T19:40:42.582Z,14.48
2019-02-27T19:47:07.831Z,14.28
2019-02-27T19:48:12.303Z,14.30
2019-02-27T19:50:20.568Z,14.28
2019-02-27T19:51:25.021Z,14.25
2019-02-27T19:52:29.745Z,14.26
2019-02-27T19:53:39.321Z,14.20
2019-02-27T19:55:44.517Z,14.17
2019-02-27T19:57:52.620Z,14.12
2019-02-27T20:00:00.694Z,14.12
2019-02-27T20:02:09.203Z,14.06
2019-02-27T20:03:13.629Z,14.03
2019-02-27T20:04:18.345Z,14.00
2019-02-27T20:05:23.145Z,14.03
2019-02-27T20:08:35.937Z,14.01
2019-02-27T20:10:44.265Z,13.92
2019-02-27T20:11:49.350Z,13.91
2019-02-27T20:14:01.947Z,13.92
2019-02-27T20:17:13.601Z,13.79
2019-02-27T20:18:17.957Z,13.76
2019-02-27T20:21:29.919Z,13.79
2019-02-27T20:24:43.176Z,13.62
2019-02-27T20:25:47.936Z,13.63
2019-02-27T20:30:07.441Z,13.57
2019-02-27T20:31:12.173Z,13.55
2019-02-27T20:33:22.314Z,13.49
2019-02-27T20:36:33.913Z,13.50
2019-02-27T20:38:43.431Z,13.45
2019-02-27T20:42:58.736Z,13.34
2019-02-27T20:44:04.167Z,13.31
2019-02-27T20:45:20.316Z,13.31
2019-02-27T20:46:25.021Z,13.31
2019-02-27T20:47:30.693Z,13.31
2019-02-27T20:50:48.435Z,13.25
2019-02-27T20:54:02.718Z,13.22
2019-02-27T20:55:07.514Z,13.24
2019-02-27T20:57:15.840Z,13.18
2019-02-27T20:59:26.074Z,13.12
2019-02-27T21:01:34.823Z,13.06
2019-02-27T21:04:46.476Z,13.12
2019-02-27T21:06:54.622Z,13.08
2019-02-27T21:09:03.571Z,13.07
2019-02-27T21:10:19.967Z,13.02
2019-02-27T21:12:25.521Z,12.99
2019-02-27T21:14:55.105Z,12.94
2019-02-27T21:21:19.841Z,12.85
2019-02-27T21:22:25.222Z,12.84
2019-02-27T21:25:38.311Z,12.77
2019-02-27T21:26:42.730Z,12.80
2019-02-27T21:27:47.481Z,12.80
2019-02-27T21:30:59.356Z,12.77
2019-02-27T21:32:03.837Z,12.76
2019-02-27T21:35:15.558Z,12.69
2019-02-27T21:38:27.845Z,12.71
2019-02-27T21:39:32.756Z,12.68
2019-02-27T21:40:37.203Z,12.69
2019-02-27T21:41:45.336Z,12.66
2019-02-27T21:42:50.946Z,12.65
2019-02-27T21:45:00.055Z,12.64
2019-02-27T21:46:11.229Z,12.62
2019-02-27T21:48:15.423Z,12.56
2019-02-27T21:51:29.268Z,12.51
2019-02-27T21:53:37.563Z,12.44
2019-02-27T21:57:53.042Z,12.46
2019-02-27T21:58:57.720Z,12.45
2019-02-27T22:00:02.745Z,12.43
2019-02-27T22:02:12.035Z,12.40
2019-02-27T22:03:16.444Z,12.36
2019-02-27T22:04:21.099Z,12.35
2019-02-27T22:05:25.574Z,12.29
2019-02-27T22:06:29.977Z,12.30
2019-02-27T22:08:38.878Z,12.31
2019-02-27T22:09:44.823Z,12.31
2019-02-27T22:15:09.386Z,12.17
2019-02-27T22:16:13.793Z,12.18
2019-02-27T22:17:18.312Z,12.18
2019-02-27T22:23:40.838Z,12.09
2019-02-27T22:25:49.023Z,12.06
2019-02-27T22:34:28.946Z,11.97
2019-02-27T22:35:37.218Z,11.95
2019-02-27T22:37:43.591Z,11.92
2019-02-27T22:38:47.979Z,11.91
2019-02-27T22:42:00.492Z,11.87
2019-02-27T22:44:08.520Z,11.82
2019-02-27T22:45:14.699Z,11.78
2019-02-27T22:46:19.076Z,11.80
2019-02-27T22:47:23.873Z,11.76
2019-02-27T22:48:28.829Z,11.76
2019-02-27T22:49:33.532Z,11.75
2019-02-27T22:50:38.284Z,11.71
2019-02-27T22:55:59.772Z,11.68
2019-02-27T22:58:07.798Z,11.68
2019-02-27T23:00:26.004Z,11.64
2019-02-27T23:01:39.152Z,11.61
2019-02-27T23:02:43.997Z,11.57
2019-02-27T23:03:51.956Z,11.54
2019-02-27T23:04:56.365Z,11.54
2019-02-27T23:08:08.004Z,11.55
2019-02-27T23:09:13.897Z,11.54
2019-02-27T23:10:18.320Z,11.52
2019-02-27T23:12:26.400Z,11.49
2019-02-27T23:13:30.803Z,11.47
2019-02-27T23:15:38.929Z,11.48
2019-02-27T23:17:47.020Z,11.44
2019-02-27T23:19:55.116Z,11.44
2019-02-27T23:21:00.279Z,11.45
2019-02-27T23:22:04.758Z,11.42
2019-02-27T23:27:26.284Z,11.34
2019-02-27T23:31:42.700Z,11.26
2019-02-27T23:34:56.033Z,11.26
2019-02-27T23:38:07.735Z,11.24
2019-02-27T23:41:23.324Z,11.17
2019-02-27T23:43:33.875Z,11.17
2019-02-27T23:50:58.573Z,11.05
2019-02-27T23:53:06.675Z,11.06
2019-02-27T23:56:20.326Z,11.00
2019-02-27T23:58:29.501Z,10.98
